sensor_id;sensor_type;location;lat;lon;timestamp;pressure;altitude;pressure_sealevel;temperature;humidity
6194;BME280;3130;41.564;23.280;2023-08-30T00:02:08;97759.00;;;22.67;nan
6194;BME280;3130;41.564;23.280;2023-08-30T00:04:35;97704.19;;;22.33;nan
6194;BME280;3130;41.564;23.280;2023-08-30T00:07:03;97667.34;;;22.22;nan
6194;BME280;3130;41.564;23.280;2023-08-30T00:09:30;97736.28;;;22.61;nan
6194;BME280;3130;41.564;23.280;2023-08-30T00:11:57;97714.34;;;22.55;nan
6194;BME280;3130;41.564;23.280;2023-08-30T00:14:26;97761.69;;;22.80;nan
6194;BME280;3130;41.564;23.280;2023-08-30T00:16:53;97765.34;;;22.92;nan
6194;BME280;3130;41.564;23.280;2023-08-30T00:19:20;97770.41;;;23.00;nan
6194;BME280;3130;41.564;23.280;2023-08-30T00:21:47;97776.22;;;23.02;nan
6194;BME280;3130;41.564;23.280;2023-08-30T00:24:14;97768.03;;;23.11;nan
6194;BME280;3130;41.564;23.280;2023-08-30T00:26:41;97767.06;;;23.19;nan
6194;BME280;3130;41.564;23.280;2023-08-30T00:29:08;97768.66;;;23.20;nan
6194;BME280;3130;41.564;23.280;2023-08-30T00:31:37;97772.88;;;23.21;nan
6194;BME280;3130;41.564;23.280;2023-08-30T00:34:04;97768.66;;;23.20;nan
6194;BME280;3130;41.564;23.280;2023-08-30T00:36:31;97771.47;;;23.18;nan
6194;BME280;3130;41.564;23.280;2023-08-30T00:38:58;97773.06;;;23.06;nan
6194;BME280;3130;41.564;23.280;2023-08-30T00:41:25;97770.06;;;23.09;nan
6194;BME280;3130;41.564;23.280;2023-08-30T00:43:52;97770.59;;;23.05;nan
6194;BME280;3130;41.564;23.280;2023-08-30T00:46:19;97768.19;;;22.97;nan
6194;BME280;3130;41.564;23.280;2023-08-30T00:48:48;97738.56;;;22.90;nan
6194;BME280;3130;41.564;23.280;2023-08-30T00:51:15;97763.03;;;23.16;nan
6194;BME280;3130;41.564;23.280;2023-08-30T00:53:42;97758.19;;;23.20;nan
6194;BME280;3130;41.564;23.280;2023-08-30T00:56:10;97757.16;;;23.08;nan
6194;BME280;3130;41.564;23.280;2023-08-30T00:58:38;97752.84;;;22.87;nan
6194;BME280;3130;41.564;23.280;2023-08-30T01:01:05;97669.78;;;22.30;nan
6194;BME280;3130;41.564;23.280;2023-08-30T01:03:33;97748.59;;;22.73;nan
6194;BME280;3130;41.564;23.280;2023-08-30T01:06:02;97739.88;;;22.60;nan
6194;BME280;3130;41.564;23.280;2023-08-30T01:08:29;97745.13;;;22.60;nan
6194;BME280;3130;41.564;23.280;2023-08-30T01:11:02;97750.75;;;22.63;nan
6194;BME280;3130;41.564;23.280;2023-08-30T01:13:37;97744.88;;;22.55;nan
6194;BME280;3130;41.564;23.280;2023-08-30T01:16:05;97745.72;;;22.55;nan
6194;BME280;3130;41.564;23.280;2023-08-30T01:18:34;97740.84;;;22.46;nan
6194;BME280;3130;41.564;23.280;2023-08-30T01:21:04;97747.34;;;22.29;nan
6194;BME280;3130;41.564;23.280;2023-08-30T01:23:40;97755.66;;;22.39;nan
6194;BME280;3130;41.564;23.280;2023-08-30T01:26:13;97752.69;;;22.48;nan
6194;BME280;3130;41.564;23.280;2023-08-30T01:28:42;97762.38;;;22.54;nan
6194;BME280;3130;41.564;23.280;2023-08-30T01:31:11;97761.16;;;22.50;nan
6194;BME280;3130;41.564;23.280;2023-08-30T01:33:39;97758.41;;;22.31;nan
6194;BME280;3130;41.564;23.280;2023-08-30T01:36:07;97770.81;;;22.23;nan
6194;BME280;3130;41.564;23.280;2023-08-30T01:38:35;97745.94;;;21.99;nan
6194;BME280;3130;41.564;23.280;2023-08-30T01:41:04;97763.75;;;22.17;nan
6194;BME280;3130;41.564;23.280;2023-08-30T01:43:31;97736.66;;;21.90;nan
6194;BME280;3130;41.564;23.280;2023-08-30T01:46:00;97734.47;;;21.94;nan
6194;BME280;3130;41.564;23.280;2023-08-30T01:48:31;97745.53;;;21.96;nan
6194;BME280;3130;41.564;23.280;2023-08-30T01:51:00;97736.38;;;22.06;nan
6194;BME280;3130;41.564;23.280;2023-08-30T01:53:28;97742.78;;;22.04;nan
6194;BME280;3130;41.564;23.280;2023-08-30T01:55:55;97747.19;;;22.03;nan
6194;BME280;3130;41.564;23.280;2023-08-30T01:58:22;97743.13;;;21.94;nan
6194;BME280;3130;41.564;23.280;2023-08-30T02:00:49;97750.72;;;21.89;nan
6194;BME280;3130;41.564;23.280;2023-08-30T02:03:18;97758.34;;;21.91;nan
6194;BME280;3130;41.564;23.280;2023-08-30T02:05:54;97741.63;;;21.85;nan
6194;BME280;3130;41.564;23.280;2023-08-30T02:08:26;97764.72;;;21.82;nan
6194;BME280;3130;41.564;23.280;2023-08-30T02:11:01;97754.44;;;21.80;nan
6194;BME280;3130;41.564;23.280;2023-08-30T02:13:30;97726.06;;;21.71;nan
6194;BME280;3130;41.564;23.280;2023-08-30T02:16:00;97728.53;;;21.79;nan
6194;BME280;3130;41.564;23.280;2023-08-30T02:18:29;97741.69;;;21.92;nan
6194;BME280;3130;41.564;23.280;2023-08-30T02:20:56;97739.78;;;21.79;nan
6194;BME280;3130;41.564;23.280;2023-08-30T02:23:23;97735.84;;;21.62;nan
6194;BME280;3130;41.564;23.280;2023-08-30T02:25:51;97740.50;;;21.67;nan
6194;BME280;3130;41.564;23.280;2023-08-30T02:28:18;97739.75;;;21.73;nan
6194;BME280;3130;41.564;23.280;2023-08-30T02:30:45;97669.47;;;21.23;nan
6194;BME280;3130;41.564;23.280;2023-08-30T02:33:13;97737.13;;;21.73;nan
6194;BME280;3130;41.564;23.280;2023-08-30T02:35:41;97646.31;;;21.14;nan
6194;BME280;3130;41.564;23.280;2023-08-30T02:38:08;97741.06;;;21.62;nan
6194;BME280;3130;41.564;23.280;2023-08-30T02:40:35;97684.38;;;21.29;nan
6194;BME280;3130;41.564;23.280;2023-08-30T02:43:03;97697.09;;;21.38;nan
6194;BME280;3130;41.564;23.280;2023-08-30T02:45:30;97635.94;;;21.20;nan
6194;BME280;3130;41.564;23.280;2023-08-30T02:47:57;97755.22;;;22.02;nan
6194;BME280;3130;41.564;23.280;2023-08-30T02:50:24;97750.31;;;22.20;nan
6194;BME280;3130;41.564;23.280;2023-08-30T02:52:52;97755.69;;;22.12;nan
6194;BME280;3130;41.564;23.280;2023-08-30T02:55:21;97760.88;;;22.05;nan
6194;BME280;3130;41.564;23.280;2023-08-30T02:57:48;97764.38;;;22.19;nan
6194;BME280;3130;41.564;23.280;2023-08-30T03:00:16;97759.81;;;22.00;nan
6194;BME280;3130;41.564;23.280;2023-08-30T03:02:43;97693.50;;;21.39;nan
6194;BME280;3130;41.564;23.280;2023-08-30T03:05:10;97772.22;;;21.91;nan
6194;BME280;3130;41.564;23.280;2023-08-30T03:07:37;97752.38;;;21.69;nan
6194;BME280;3130;41.564;23.280;2023-08-30T03:10:07;97772.34;;;21.83;nan
6194;BME280;3130;41.564;23.280;2023-08-30T03:12:34;97765.63;;;21.95;nan
6194;BME280;3130;41.564;23.280;2023-08-30T03:15:01;97606.28;;;21.00;nan
6194;BME280;3130;41.564;23.280;2023-08-30T03:17:29;97764.56;;;21.90;nan
6194;BME280;3130;41.564;23.280;2023-08-30T03:19:56;97759.31;;;21.62;nan
6194;BME280;3130;41.564;23.280;2023-08-30T03:22:23;97791.00;;;21.80;nan
6194;BME280;3130;41.564;23.280;2023-08-30T03:24:51;97796.19;;;22.01;nan
6194;BME280;3130;41.564;23.280;2023-08-30T03:27:19;97793.66;;;22.14;nan
6194;BME280;3130;41.564;23.280;2023-08-30T03:29:46;97789.03;;;22.16;nan
6194;BME280;3130;41.564;23.280;2023-08-30T03:32:17;97791.63;;;22.10;nan
6194;BME280;3130;41.564;23.280;2023-08-30T03:34:44;97783.78;;;21.82;nan
6194;BME280;3130;41.564;23.280;2023-08-30T03:37:11;97802.81;;;21.76;nan
6194;BME280;3130;41.564;23.280;2023-08-30T03:39:38;97794.50;;;21.66;nan
6194;BME280;3130;41.564;23.280;2023-08-30T03:42:05;97796.59;;;21.56;nan
6194;BME280;3130;41.564;23.280;2023-08-30T03:44:34;97788.59;;;21.58;nan
6194;BME280;3130;41.564;23.280;2023-08-30T03:47:01;97780.44;;;21.46;nan
6194;BME280;3130;41.564;23.280;2023-08-30T03:49:29;97806.09;;;21.43;nan
6194;BME280;3130;41.564;23.280;2023-08-30T03:51:56;97798.88;;;21.45;nan
6194;BME280;3130;41.564;23.280;2023-08-30T03:54:23;97798.66;;;21.61;nan
6194;BME280;3130;41.564;23.280;2023-08-30T03:56:50;97770.25;;;21.51;nan
6194;BME280;3130;41.564;23.280;2023-08-30T03:59:17;97808.94;;;21.90;nan
6194;BME280;3130;41.564;23.280;2023-08-30T04:01:46;97804.50;;;21.84;nan
6194;BME280;3130;41.564;23.280;2023-08-30T04:04:13;97804.25;;;21.79;nan
6194;BME280;3130;41.564;23.280;2023-08-30T04:06:40;97805.50;;;21.62;nan
6194;BME280;3130;41.564;23.280;2023-08-30T04:09:07;97810.81;;;21.54;nan
6194;BME280;3130;41.564;23.280;2023-08-30T04:11:35;97814.53;;;21.59;nan
6194;BME280;3130;41.564;23.280;2023-08-30T04:14:02;97817.63;;;21.55;nan
6194;BME280;3130;41.564;23.280;2023-08-30T04:16:30;97826.00;;;21.65;nan
6194;BME280;3130;41.564;23.280;2023-08-30T04:18:58;97831.22;;;21.65;nan
6194;BME280;3130;41.564;23.280;2023-08-30T04:21:25;97831.28;;;21.71;nan
6194;BME280;3130;41.564;23.280;2023-08-30T04:23:52;97836.88;;;21.68;nan
6194;BME280;3130;41.564;23.280;2023-08-30T04:26:19;97849.91;;;21.68;nan
6194;BME280;3130;41.564;23.280;2023-08-30T04:28:46;97805.53;;;21.47;nan
6194;BME280;3130;41.564;23.280;2023-08-30T04:31:13;97840.53;;;21.74;nan
6194;BME280;3130;41.564;23.280;2023-08-30T04:33:40;97851.66;;;21.82;nan
6194;BME280;3130;41.564;23.280;2023-08-30T04:36:08;97853.78;;;21.93;nan
6194;BME280;3130;41.564;23.280;2023-08-30T04:38:35;97851.38;;;21.98;nan
6194;BME280;3130;41.564;23.280;2023-08-30T04:41:03;97786.47;;;21.47;nan
6194;BME280;3130;41.564;23.280;2023-08-30T04:43:30;97821.88;;;21.56;nan
6194;BME280;3130;41.564;23.280;2023-08-30T04:45:57;97858.19;;;21.72;nan
6194;BME280;3130;41.564;23.280;2023-08-30T04:48:24;97799.41;;;21.34;nan
6194;BME280;3130;41.564;23.280;2023-08-30T04:50:58;97862.41;;;21.73;nan
6194;BME280;3130;41.564;23.280;2023-08-30T04:53:27;97717.63;;;20.85;nan
6194;BME280;3130;41.564;23.280;2023-08-30T04:55:54;97869.28;;;21.80;nan
6194;BME280;3130;41.564;23.280;2023-08-30T04:58:21;97870.84;;;21.96;nan
6194;BME280;3130;41.564;23.280;2023-08-30T05:00:48;97862.94;;;22.10;nan
6194;BME280;3130;41.564;23.280;2023-08-30T05:03:15;97862.94;;;22.10;nan
6194;BME280;3130;41.564;23.280;2023-08-30T05:05:45;97861.97;;;22.11;nan
6194;BME280;3130;41.564;23.280;2023-08-30T05:08:12;97745.53;;;21.27;nan
6194;BME280;3130;41.564;23.280;2023-08-30T05:10:41;97865.50;;;22.04;nan
6194;BME280;3130;41.564;23.280;2023-08-30T05:13:08;97789.13;;;21.53;nan
6194;BME280;3130;41.564;23.280;2023-08-30T05:15:36;97805.75;;;21.67;nan
6194;BME280;3130;41.564;23.280;2023-08-30T05:18:04;97877.72;;;22.24;nan
6194;BME280;3130;41.564;23.280;2023-08-30T05:20:31;97872.53;;;22.51;nan
6194;BME280;3130;41.564;23.280;2023-08-30T05:22:58;97872.63;;;22.71;nan
6194;BME280;3130;41.564;23.280;2023-08-30T05:25:25;97882.81;;;22.93;nan
6194;BME280;3130;41.564;23.280;2023-08-30T05:27:54;97860.13;;;23.00;nan
6194;BME280;3130;41.564;23.280;2023-08-30T05:30:21;97881.63;;;23.36;nan
6194;BME280;3130;41.564;23.280;2023-08-30T05:32:48;97853.22;;;23.27;nan
6194;BME280;3130;41.564;23.280;2023-08-30T05:35:15;97879.44;;;23.46;nan
6194;BME280;3130;41.564;23.280;2023-08-30T05:37:42;97787.66;;;22.88;nan
6194;BME280;3130;41.564;23.280;2023-08-30T05:40:10;97876.47;;;23.68;nan
6194;BME280;3130;41.564;23.280;2023-08-30T05:42:40;97867.19;;;23.66;nan
6194;BME280;3130;41.564;23.280;2023-08-30T05:45:09;97882.16;;;23.91;nan
6194;BME280;3130;41.564;23.280;2023-08-30T05:47:36;97864.03;;;23.96;nan
6194;BME280;3130;41.564;23.280;2023-08-30T05:50:04;97888.25;;;24.24;nan
6194;BME280;3130;41.564;23.280;2023-08-30T05:52:32;97883.59;;;24.46;nan
6194;BME280;3130;41.564;23.280;2023-08-30T05:54:59;97884.22;;;24.60;nan
6194;BME280;3130;41.564;23.280;2023-08-30T05:57:30;97850.31;;;24.52;nan
6194;BME280;3130;41.564;23.280;2023-08-30T05:59:59;97884.94;;;24.87;nan
6194;BME280;3130;41.564;23.280;2023-08-30T06:02:28;97869.81;;;24.89;nan
6194;BME280;3130;41.564;23.280;2023-08-30T06:04:55;97870.97;;;25.06;nan
6194;BME280;3130;41.564;23.280;2023-08-30T06:07:22;97873.97;;;25.16;nan
6194;BME280;3130;41.564;23.280;2023-08-30T06:09:49;97870.13;;;25.25;nan
6194;BME280;3130;41.564;23.280;2023-08-30T06:12:16;97803.97;;;24.97;nan
6194;BME280;3130;41.564;23.280;2023-08-30T06:14:43;97788.38;;;24.71;nan
6194;BME280;3130;41.564;23.280;2023-08-30T06:17:16;97882.56;;;25.36;nan
6194;BME280;3130;41.564;23.280;2023-08-30T06:19:45;97869.00;;;25.45;nan
6194;BME280;3130;41.564;23.280;2023-08-30T06:22:12;97889.41;;;25.87;nan
6194;BME280;3130;41.564;23.280;2023-08-30T06:24:39;97895.94;;;26.02;nan
6194;BME280;3130;41.564;23.280;2023-08-30T06:27:06;97846.66;;;25.98;nan
6194;BME280;3130;41.564;23.280;2023-08-30T06:29:33;97895.09;;;26.33;nan
6194;BME280;3130;41.564;23.280;2023-08-30T06:32:00;97891.81;;;26.44;nan
6194;BME280;3130;41.564;23.280;2023-08-30T06:34:28;97887.66;;;26.54;nan
6194;BME280;3130;41.564;23.280;2023-08-30T06:36:56;97890.97;;;26.67;nan
6194;BME280;3130;41.564;23.280;2023-08-30T06:39:23;97890.19;;;26.85;nan
6194;BME280;3130;41.564;23.280;2023-08-30T06:41:50;97885.00;;;26.96;nan
6194;BME280;3130;41.564;23.280;2023-08-30T06:44:17;97907.13;;;27.13;nan
6194;BME280;3130;41.564;23.280;2023-08-30T06:46:45;97784.44;;;26.59;nan
6194;BME280;3130;41.564;23.280;2023-08-30T06:49:12;97907.53;;;27.46;nan
6194;BME280;3130;41.564;23.280;2023-08-30T06:51:39;97906.19;;;27.55;nan
6194;BME280;3130;41.564;23.280;2023-08-30T06:54:07;97902.66;;;27.79;nan
6194;BME280;3130;41.564;23.280;2023-08-30T06:56:34;97893.16;;;27.89;nan
6194;BME280;3130;41.564;23.280;2023-08-30T06:59:01;97897.44;;;28.13;nan
6194;BME280;3130;41.564;23.280;2023-08-30T07:01:28;97891.78;;;28.39;nan
6194;BME280;3130;41.564;23.280;2023-08-30T07:03:55;97889.66;;;29.33;nan
6194;BME280;3130;41.564;23.280;2023-08-30T07:06:23;97870.94;;;31.10;nan
6194;BME280;3130;41.564;23.280;2023-08-30T07:08:50;97892.00;;;32.53;nan
6194;BME280;3130;41.564;23.280;2023-08-30T07:11:18;97897.38;;;33.51;nan
6194;BME280;3130;41.564;23.280;2023-08-30T07:13:45;97882.59;;;34.44;nan
6194;BME280;3130;41.564;23.280;2023-08-30T07:16:12;97893.41;;;35.76;nan
6194;BME280;3130;41.564;23.280;2023-08-30T07:18:39;97819.81;;;36.03;nan
6194;BME280;3130;41.564;23.280;2023-08-30T07:21:06;97903.75;;;35.92;nan
6194;BME280;3130;41.564;23.280;2023-08-30T07:23:33;97892.66;;;34.97;nan
6194;BME280;3130;41.564;23.280;2023-08-30T07:26:01;97894.06;;;34.70;nan
6194;BME280;3130;41.564;23.280;2023-08-30T07:28:29;97893.75;;;34.91;nan
6194;BME280;3130;41.564;23.280;2023-08-30T07:31:02;97884.97;;;34.81;nan
6194;BME280;3130;41.564;23.280;2023-08-30T07:33:30;97891.13;;;34.76;nan
6194;BME280;3130;41.564;23.280;2023-08-30T07:35:57;97888.03;;;35.27;nan
6194;BME280;3130;41.564;23.280;2023-08-30T07:38:24;97901.41;;;35.81;nan
6194;BME280;3130;41.564;23.280;2023-08-30T07:40:51;97865.16;;;35.70;nan
6194;BME280;3130;41.564;23.280;2023-08-30T07:43:18;97889.34;;;35.35;nan
6194;BME280;3130;41.564;23.280;2023-08-30T07:45:47;97888.75;;;34.70;nan
6194;BME280;3130;41.564;23.280;2023-08-30T07:48:14;97891.16;;;34.21;nan
6194;BME280;3130;41.564;23.280;2023-08-30T07:50:41;97894.97;;;35.23;nan
6194;BME280;3130;41.564;23.280;2023-08-30T07:53:08;97897.38;;;37.53;nan
6194;BME280;3130;41.564;23.280;2023-08-30T07:55:35;97906.16;;;39.85;nan
6194;BME280;3130;41.564;23.280;2023-08-30T07:58:03;97904.19;;;41.81;nan
6194;BME280;3130;41.564;23.280;2023-08-30T08:00:30;97891.44;;;43.21;nan
6194;BME280;3130;41.564;23.280;2023-08-30T08:02:59;97905.72;;;43.99;nan
6194;BME280;3130;41.564;23.280;2023-08-30T08:05:26;97880.28;;;44.33;nan
6194;BME280;3130;41.564;23.280;2023-08-30T08:07:53;97891.16;;;43.92;nan
6194;BME280;3130;41.564;23.280;2023-08-30T08:10:20;97902.72;;;44.33;nan
6194;BME280;3130;41.564;23.280;2023-08-30T08:12:47;97890.06;;;42.98;nan
6194;BME280;3130;41.564;23.280;2023-08-30T08:15:14;97897.44;;;40.89;nan
6194;BME280;3130;41.564;23.280;2023-08-30T08:17:41;97894.50;;;38.24;nan
6194;BME280;3130;41.564;23.280;2023-08-30T08:20:11;97881.13;;;37.27;nan
6194;BME280;3130;41.564;23.280;2023-08-30T08:22:39;97875.31;;;36.39;nan
6194;BME280;3130;41.564;23.280;2023-08-30T08:25:07;97888.38;;;35.74;nan
6194;BME280;3130;41.564;23.280;2023-08-30T08:27:35;97893.03;;;35.49;nan
6194;BME280;3130;41.564;23.280;2023-08-30T08:30:04;97771.31;;;33.97;nan
6194;BME280;3130;41.564;23.280;2023-08-30T08:32:31;97878.88;;;34.30;nan
6194;BME280;3130;41.564;23.280;2023-08-30T08:34:59;97870.13;;;34.15;nan
6194;BME280;3130;41.564;23.280;2023-08-30T08:37:27;97875.91;;;33.87;nan
6194;BME280;3130;41.564;23.280;2023-08-30T08:39:54;97880.47;;;34.02;nan
6194;BME280;3130;41.564;23.280;2023-08-30T08:42:21;97874.59;;;33.85;nan
6194;BME280;3130;41.564;23.280;2023-08-30T08:44:50;97879.59;;;33.66;nan
6194;BME280;3130;41.564;23.280;2023-08-30T08:47:19;97881.41;;;33.61;nan
6194;BME280;3130;41.564;23.280;2023-08-30T08:49:46;97880.09;;;33.58;nan
6194;BME280;3130;41.564;23.280;2023-08-30T08:52:14;97875.53;;;33.49;nan
6194;BME280;3130;41.564;23.280;2023-08-30T08:54:43;97874.72;;;33.38;nan
6194;BME280;3130;41.564;23.280;2023-08-30T08:57:11;97875.72;;;33.22;nan
6194;BME280;3130;41.564;23.280;2023-08-30T08:59:39;97869.94;;;32.48;nan
6194;BME280;3130;41.564;23.280;2023-08-30T09:02:07;97763.91;;;31.95;nan
6194;BME280;3130;41.564;23.280;2023-08-30T09:04:36;97839.50;;;32.60;nan
6194;BME280;3130;41.564;23.280;2023-08-30T09:07:03;97871.25;;;32.82;nan
6194;BME280;3130;41.564;23.280;2023-08-30T09:09:30;97870.41;;;32.76;nan
6194;BME280;3130;41.564;23.280;2023-08-30T09:11:59;97864.56;;;32.74;nan
6194;BME280;3130;41.564;23.280;2023-08-30T09:14:26;97865.38;;;32.80;nan
6194;BME280;3130;41.564;23.280;2023-08-30T09:16:56;97746.28;;;32.15;nan
6194;BME280;3130;41.564;23.280;2023-08-30T09:19:23;97852.47;;;32.98;nan
6194;BME280;3130;41.564;23.280;2023-08-30T09:21:51;97861.72;;;32.86;nan
6194;BME280;3130;41.564;23.280;2023-08-30T09:24:18;97841.50;;;32.85;nan
6194;BME280;3130;41.564;23.280;2023-08-30T09:26:47;97856.97;;;32.97;nan
6194;BME280;3130;41.564;23.280;2023-08-30T09:29:17;97848.16;;;32.82;nan
6194;BME280;3130;41.564;23.280;2023-08-30T09:31:44;97852.44;;;32.93;nan
6194;BME280;3130;41.564;23.280;2023-08-30T09:34:12;97849.81;;;32.98;nan
6194;BME280;3130;41.564;23.280;2023-08-30T09:36:41;97836.03;;;33.11;nan
6194;BME280;3130;41.564;23.280;2023-08-30T09:39:10;97843.28;;;33.20;nan
6194;BME280;3130;41.564;23.280;2023-08-30T09:41:40;97845.44;;;33.33;nan
6194;BME280;3130;41.564;23.280;2023-08-30T09:44:09;97832.44;;;33.42;nan
6194;BME280;3130;41.564;23.280;2023-08-30T09:46:44;97838.06;;;33.45;nan
6194;BME280;3130;41.564;23.280;2023-08-30T09:49:12;97721.81;;;32.60;nan
6194;BME280;3130;41.564;23.280;2023-08-30T09:51:40;97833.47;;;33.31;nan
6194;BME280;3130;41.564;23.280;2023-08-30T09:54:13;97819.34;;;33.20;nan
6194;BME280;3130;41.564;23.280;2023-08-30T09:56:42;97795.69;;;33.14;nan
6194;BME280;3130;41.564;23.280;2023-08-30T09:59:10;97815.38;;;33.28;nan
6194;BME280;3130;41.564;23.280;2023-08-30T10:01:38;97825.53;;;33.46;nan
6194;BME280;3130;41.564;23.280;2023-08-30T10:04:07;97819.94;;;33.37;nan
6194;BME280;3130;41.564;23.280;2023-08-30T10:06:35;97815.16;;;33.39;nan
6194;BME280;3130;41.564;23.280;2023-08-30T10:09:03;97817.81;;;33.39;nan
6194;BME280;3130;41.564;23.280;2023-08-30T10:11:32;97822.88;;;33.36;nan
6194;BME280;3130;41.564;23.280;2023-08-30T10:14:02;97820.44;;;33.34;nan
6194;BME280;3130;41.564;23.280;2023-08-30T10:16:34;97806.13;;;33.40;nan
6194;BME280;3130;41.564;23.280;2023-08-30T10:19:10;97809.84;;;33.54;nan
6194;BME280;3130;41.564;23.280;2023-08-30T10:21:37;97808.22;;;33.38;nan
6194;BME280;3130;41.564;23.280;2023-08-30T10:24:07;97779.47;;;33.15;nan
6194;BME280;3130;41.564;23.280;2023-08-30T10:26:36;97802.38;;;33.36;nan
6194;BME280;3130;41.564;23.280;2023-08-30T10:29:05;97780.84;;;33.33;nan
6194;BME280;3130;41.564;23.280;2023-08-30T10:31:32;97798.69;;;33.52;nan
6194;BME280;3130;41.564;23.280;2023-08-30T10:34:00;97685.00;;;32.88;nan
6194;BME280;3130;41.564;23.280;2023-08-30T10:36:28;97791.22;;;33.39;nan
6194;BME280;3130;41.564;23.280;2023-08-30T10:38:55;97797.88;;;33.47;nan
6194;BME280;3130;41.564;23.280;2023-08-30T10:41:24;97797.84;;;33.27;nan
6194;BME280;3130;41.564;23.280;2023-08-30T10:43:52;97722.03;;;32.43;nan
6194;BME280;3130;41.564;23.280;2023-08-30T10:46:30;97803.97;;;33.27;nan
6194;BME280;3130;41.564;23.280;2023-08-30T10:49:08;97781.88;;;33.27;nan
6194;BME280;3130;41.564;23.280;2023-08-30T10:51:39;97790.69;;;33.42;nan
6194;BME280;3130;41.564;23.280;2023-08-30T10:54:13;97792.84;;;33.45;nan
6194;BME280;3130;41.564;23.280;2023-08-30T10:56:48;97791.22;;;33.39;nan
6194;BME280;3130;41.564;23.280;2023-08-30T10:59:16;97706.22;;;32.63;nan
6194;BME280;3130;41.564;23.280;2023-08-30T11:01:45;97798.09;;;33.20;nan
6194;BME280;3130;41.564;23.280;2023-08-30T11:04:14;97787.50;;;32.28;nan
6194;BME280;3130;41.564;23.280;2023-08-30T11:06:44;97787.59;;;32.43;nan
6194;BME280;3130;41.564;23.280;2023-08-30T11:09:15;97779.78;;;32.68;nan
6194;BME280;3130;41.564;23.280;2023-08-30T11:11:45;97779.94;;;33.02;nan
6194;BME280;3130;41.564;23.280;2023-08-30T11:14:13;97781.63;;;33.23;nan
6194;BME280;3130;41.564;23.280;2023-08-30T11:16:40;97765.44;;;33.35;nan
6194;BME280;3130;41.564;23.280;2023-08-30T11:19:08;97764.63;;;33.54;nan
6194;BME280;3130;41.564;23.280;2023-08-30T11:21:37;97769.97;;;33.59;nan
6194;BME280;3130;41.564;23.280;2023-08-30T11:24:07;97652.06;;;32.79;nan
6194;BME280;3130;41.564;23.280;2023-08-30T11:26:34;97776.06;;;33.60;nan
6194;BME280;3130;41.564;23.280;2023-08-30T11:29:05;97676.28;;;32.93;nan
6194;BME280;3130;41.564;23.280;2023-08-30T11:31:32;97731.13;;;32.57;nan
6194;BME280;3130;41.564;23.280;2023-08-30T11:34:00;97761.06;;;32.48;nan
6194;BME280;3130;41.564;23.280;2023-08-30T11:36:28;97724.72;;;32.53;nan
6194;BME280;3130;41.564;23.280;2023-08-30T11:38:56;97727.91;;;32.50;nan
6194;BME280;3130;41.564;23.280;2023-08-30T11:41:34;97723.53;;;32.76;nan
6194;BME280;3130;41.564;23.280;2023-08-30T11:45:41;97745.09;;;33.04;nan
6194;BME280;3130;41.564;23.280;2023-08-30T11:57:07;97748.69;;;33.54;nan
6194;BME280;3130;41.564;23.280;2023-08-30T12:08:46;97736.69;;;33.42;nan
6194;BME280;3130;41.564;23.280;2023-08-30T12:15:25;97732.44;;;33.41;nan
6194;BME280;3130;41.564;23.280;2023-08-30T12:21:43;97709.91;;;33.63;nan
6194;BME280;3130;41.564;23.280;2023-08-30T12:24:16;97718.38;;;33.70;nan
6194;BME280;3130;41.564;23.280;2023-08-30T12:26:50;97626.06;;;33.21;nan
6194;BME280;3130;41.564;23.280;2023-08-30T12:29:24;97702.44;;;33.80;nan
6194;BME280;3130;41.564;23.280;2023-08-30T12:34:45;97718.66;;;33.79;nan
6194;BME280;3130;41.564;23.280;2023-08-30T12:43:37;97703.75;;;33.83;nan
6194;BME280;3130;41.564;23.280;2023-08-30T12:46:20;97702.41;;;33.90;nan
6194;BME280;3130;41.564;23.280;2023-08-30T12:49:18;97707.47;;;33.87;nan
6194;BME280;3130;41.564;23.280;2023-08-30T12:51:45;97700.28;;;33.77;nan
6194;BME280;3130;41.564;23.280;2023-08-30T12:54:12;97704.56;;;33.78;nan
6194;BME280;3130;41.564;23.280;2023-08-30T12:56:39;97676.06;;;33.74;nan
6194;BME280;3130;41.564;23.280;2023-08-30T12:59:08;97619.41;;;33.48;nan
6194;BME280;3130;41.564;23.280;2023-08-30T13:01:35;97705.84;;;34.15;nan
6194;BME280;3130;41.564;23.280;2023-08-30T13:04:02;97704.47;;;34.23;nan
6194;BME280;3130;41.564;23.280;2023-08-30T13:06:29;97647.03;;;33.97;nan
6194;BME280;3130;41.564;23.280;2023-08-30T13:08:57;97685.03;;;34.27;nan
6194;BME280;3130;41.564;23.280;2023-08-30T13:11:24;97699.38;;;34.41;nan
6194;BME280;3130;41.564;23.280;2023-08-30T13:13:53;97644.88;;;34.04;nan
6194;BME280;3130;41.564;23.280;2023-08-30T13:16:24;97701.22;;;34.41;nan
6194;BME280;3130;41.564;23.280;2023-08-30T13:18:51;97697.59;;;34.17;nan
6194;BME280;3130;41.564;23.280;2023-08-30T13:21:18;97605.09;;;33.44;nan
6194;BME280;3130;41.564;23.280;2023-08-30T13:23:45;97701.06;;;34.03;nan
6194;BME280;3130;41.564;23.280;2023-08-30T13:26:12;97630.09;;;33.63;nan
6194;BME280;3130;41.564;23.280;2023-08-30T13:28:39;97685.09;;;33.98;nan
6194;BME280;3130;41.564;23.280;2023-08-30T13:31:07;97689.63;;;33.97;nan
6194;BME280;3130;41.564;23.280;2023-08-30T13:33:35;97704.22;;;34.09;nan
6194;BME280;3130;41.564;23.280;2023-08-30T13:36:03;97689.31;;;34.13;nan
6194;BME280;3130;41.564;23.280;2023-08-30T13:38:30;97688.25;;;34.09;nan
6194;BME280;3130;41.564;23.280;2023-08-30T13:41:00;97676.03;;;33.99;nan
6194;BME280;3130;41.564;23.280;2023-08-30T13:43:29;97693.06;;;34.12;nan
6194;BME280;3130;41.564;23.280;2023-08-30T13:45:59;97696.00;;;34.16;nan
6194;BME280;3130;41.564;23.280;2023-08-30T13:48:26;97700.25;;;34.17;nan
6194;BME280;3130;41.564;23.280;2023-08-30T13:50:55;97674.69;;;34.01;nan
6194;BME280;3130;41.564;23.280;2023-08-30T13:53:22;97695.19;;;34.20;nan
6194;BME280;3130;41.564;23.280;2023-08-30T13:55:50;97586.44;;;33.59;nan
6194;BME280;3130;41.564;23.280;2023-08-30T13:58:17;97705.00;;;34.30;nan
6194;BME280;3130;41.564;23.280;2023-08-30T14:00:44;97627.66;;;33.82;nan
6194;BME280;3130;41.564;23.280;2023-08-30T14:03:11;97694.06;;;34.26;nan
6194;BME280;3130;41.564;23.280;2023-08-30T14:05:38;97704.19;;;34.29;nan
6194;BME280;3130;41.564;23.280;2023-08-30T14:08:08;97656.09;;;33.86;nan
6194;BME280;3130;41.564;23.280;2023-08-30T14:10:35;97709.03;;;34.03;nan
6194;BME280;3130;41.564;23.280;2023-08-30T14:13:03;97694.13;;;33.92;nan
6194;BME280;3130;41.564;23.280;2023-08-30T14:15:30;97698.41;;;33.88;nan